createdAt,value
2022-08-25T00:00:29.503Z,100882.97
2022-08-25T00:02:57.985Z,100883.97
2022-08-25T00:05:28.175Z,100881.06
2022-08-25T00:07:58.235Z,100878.03
2022-08-25T00:10:26.303Z,100881.22
2022-08-25T00:12:55.612Z,100878.84
2022-08-25T00:15:24.214Z,100884.72
2022-08-25T00:17:52.211Z,100885.06
2022-08-25T00:20:20.403Z,100886.25
2022-08-25T00:22:48.996Z,100888.28
2022-08-25T00:25:17.130Z,100887.44
2022-08-25T00:27:45.822Z,100882.88
2022-08-25T00:30:16.813Z,100877.44
2022-08-25T00:32:51.447Z,100879.47
2022-08-25T00:35:24.475Z,100884.34
2022-08-25T00:37:52.502Z,100879.78
2022-08-25T00:40:20.727Z,100882.66
2022-08-25T00:42:48.923Z,100884.84
2022-08-25T00:45:18.843Z,100883.00
2022-08-25T00:47:47.005Z,100882.16
2022-08-25T00:50:15.728Z,100886.84
2022-08-25T00:52:47.463Z,100893.28
2022-08-25T00:55:19.927Z,100888.88
2022-08-25T00:57:53.403Z,100888.19
2022-08-25T01:00:26.232Z,100883.09
2022-08-25T01:02:54.572Z,100882.25
2022-08-25T01:05:23.537Z,100884.78
2022-08-25T01:07:52.489Z,100874.81
2022-08-25T01:10:27.850Z,100874.81
2022-08-25T01:13:01.146Z,100877.50
2022-08-25T01:15:31.377Z,100881.22
2022-08-25T01:18:01.048Z,100878.53
2022-08-25T01:20:32.658Z,100876.81
2022-08-25T01:23:02.517Z,100882.25
2022-08-25T01:25:40.568Z,100875.97
2022-08-25T01:28:08.466Z,100875.50
2022-08-25T01:30:37.388Z,100870.22
2022-08-25T01:33:07.365Z,100870.22
2022-08-25T01:35:36.350Z,100871.97
2022-08-25T01:38:09.439Z,100868.38
2022-08-25T01:40:40.591Z,100871.97
2022-08-25T01:43:17.370Z,100866.84
2022-08-25T01:45:48.023Z,100863.47
2022-08-25T01:48:16.990Z,100861.06
2022-08-25T01:50:47.715Z,100858.69
2022-08-25T01:53:23.953Z,100858.69
2022-08-25T01:56:01.773Z,100861.06
2022-08-25T01:58:32.748Z,100852.59
2022-08-25T02:01:02.665Z,100857.00
2022-08-25T02:03:32.489Z,100854.28
2022-08-25T02:06:01.833Z,100853.63
2022-08-25T02:08:34.626Z,100859.31
2022-08-25T02:11:02.667Z,100860.16
2022-08-25T02:13:31.319Z,100856.63
2022-08-25T02:16:02.398Z,100864.91
2022-08-25T02:18:31.493Z,100859.66
2022-08-25T02:20:59.406Z,100861.69
2022-08-25T02:23:28.258Z,100860.84
2022-08-25T02:25:58.146Z,100859.44
2022-08-25T02:28:26.457Z,100860.09
2022-08-25T02:31:00.151Z,100857.03
2022-08-25T02:33:29.559Z,100864.63
2022-08-25T02:35:59.573Z,100855.16
2022-08-25T02:38:28.580Z,100855.16
2022-08-25T02:40:59.841Z,100856.28
2022-08-25T02:43:29.133Z,100854.75
2022-08-25T02:45:57.276Z,100844.09
2022-08-25T02:48:25.273Z,100846.47
2022-08-25T02:50:54.196Z,100844.44
2022-08-25T02:53:23.371Z,100839.66
2022-08-25T02:55:51.258Z,100839.75
2022-08-25T02:58:21.055Z,100834.25
2022-08-25T03:00:49.938Z,100834.06
2022-08-25T03:03:18.349Z,100834.19
2022-08-25T03:05:46.972Z,100836.75
2022-08-25T03:08:15.310Z,100832.22
2022-08-25T03:10:43.316Z,100829.50
2022-08-25T03:13:11.688Z,100831.66
2022-08-25T03:15:42.517Z,100827.25
2022-08-25T03:18:12.546Z,100829.13
2022-08-25T03:20:43.108Z,100831.97
2022-08-25T03:23:11.260Z,100828.03
2022-08-25T03:26:00.720Z,100821.94
2022-08-25T03:28:33.127Z,100827.50
2022-08-25T03:31:03.048Z,100838.09
2022-08-25T03:33:32.314Z,100831.00
2022-08-25T03:36:00.525Z,100829.31
2022-08-25T03:38:29.220Z,100831.31
2022-08-25T03:40:57.590Z,100828.94
2022-08-25T03:43:25.968Z,100831.94
2022-08-25T03:45:57.100Z,100831.94
2022-08-25T03:48:26.744Z,100832.09
2022-08-25T03:50:55.204Z,100834.53
2022-08-25T03:53:23.926Z,100834.66
2022-08-25T03:55:52.313Z,100834.72
2022-08-25T03:58:20.237Z,100834.63
2022-08-25T04:00:48.130Z,100835.06
2022-08-25T04:03:16.320Z,100827.59
2022-08-25T04:05:45.993Z,100830.03
2022-08-25T04:08:14.085Z,100818.41
2022-08-25T04:10:42.394Z,100824.31
2022-08-25T04:13:10.512Z,100826.44
2022-08-25T04:15:38.511Z,100830.81
2022-08-25T04:18:06.972Z,100821.88
2022-08-25T04:20:34.967Z,100823.03
2022-08-25T04:23:04.300Z,100821.47
2022-08-25T04:25:32.464Z,100823.47
2022-08-25T04:28:00.449Z,100824.66
2022-08-25T04:30:28.406Z,100832.03
2022-08-25T04:32:56.597Z,100831.19
2022-08-25T04:35:24.873Z,100821.78
2022-08-25T04:37:52.863Z,100824.03
2022-08-25T04:40:28.978Z,100823.56
2022-08-25T04:42:57.318Z,100827.81
2022-08-25T04:45:25.499Z,100827.53
2022-08-25T04:47:55.139Z,100830.22
2022-08-25T04:50:23.262Z,100841.03
2022-08-25T04:52:51.351Z,100843.09
2022-08-25T04:55:20.181Z,100842.69
2022-08-25T04:57:49.568Z,100848.28
2022-08-25T05:00:18.672Z,100844.28
2022-08-25T05:02:46.719Z,100841.81
2022-08-25T05:05:14.829Z,100842.72
2022-08-25T05:07:43.015Z,100844.66
2022-08-25T05:10:11.551Z,100842.19
2022-08-25T05:12:39.890Z,100844.25
2022-08-25T05:15:28.791Z,100834.53
2022-08-25T05:17:57.804Z,100837.28
2022-08-25T05:20:27.240Z,100838.38
2022-08-25T05:22:55.095Z,100838.59
2022-08-25T05:25:23.179Z,100830.69
2022-08-25T05:27:51.676Z,100832.75
2022-08-25T05:30:21.248Z,100831.28
2022-08-25T05:32:49.120Z,100829.47
2022-08-25T05:35:17.504Z,100823.44
2022-08-25T05:37:45.466Z,100825.84
2022-08-25T05:40:13.793Z,100817.44
2022-08-25T05:42:41.984Z,100832.69
2022-08-25T05:45:10.845Z,100830.72
2022-08-25T05:47:49.876Z,100831.09
2022-08-25T05:50:18.554Z,100833.31
2022-08-25T05:52:49.088Z,100837.25
2022-08-25T05:55:17.458Z,100832.34
2022-08-25T05:57:45.540Z,100822.03
2022-08-25T06:00:14.340Z,100819.34
2022-08-25T06:02:46.100Z,100827.00
2022-08-25T06:05:17.911Z,100831.41
2022-08-25T06:07:47.176Z,100837.50
2022-08-25T06:10:15.815Z,100832.56
2022-08-25T06:12:45.822Z,100838.66
2022-08-25T06:15:15.963Z,100833.91
2022-08-25T06:17:44.356Z,100836.13
2022-08-25T06:20:16.600Z,100839.12
2022-08-25T06:22:45.047Z,100839.41
2022-08-25T06:25:15.016Z,100842.59
2022-08-25T06:27:43.373Z,100839.00
2022-08-25T06:30:15.217Z,100839.31
2022-08-25T06:32:45.958Z,100829.78
2022-08-25T06:35:17.444Z,100831.44
2022-08-25T06:37:45.778Z,100834.22
2022-08-25T06:40:15.156Z,100826.66
2022-08-25T06:42:43.393Z,100825.06
2022-08-25T06:45:11.553Z,100824.09
2022-08-25T06:47:39.641Z,100824.31
2022-08-25T06:50:08.729Z,100821.66
2022-08-25T06:52:38.326Z,100827.88
2022-08-25T06:55:07.382Z,100821.97
2022-08-25T06:57:35.898Z,100821.25
2022-08-25T07:00:05.870Z,100823.59
2022-08-25T07:02:35.450Z,100827.37
2022-08-25T07:05:04.642Z,100828.00
2022-08-25T07:07:43.781Z,100829.78
2022-08-25T07:10:14.666Z,100828.75
2022-08-25T07:12:47.427Z,100821.22
2022-08-25T07:15:20.345Z,100824.38
2022-08-25T07:17:49.982Z,100828.19
2022-08-25T07:20:19.403Z,100830.72
2022-08-25T07:22:48.054Z,100826.75
2022-08-25T07:25:18.046Z,100831.56
2022-08-25T07:27:46.691Z,100827.44
2022-08-25T07:30:15.244Z,100826.28
2022-08-25T07:32:43.478Z,100840.03
2022-08-25T07:35:19.132Z,100828.75
2022-08-25T07:37:49.827Z,100838.91
2022-08-25T07:40:22.685Z,100825.66
2022-08-25T07:42:53.557Z,100830.81
2022-08-25T07:45:30.143Z,100836.06
2022-08-25T07:47:59.489Z,100822.69
2022-08-25T07:50:31.284Z,100829.25
2022-08-25T07:53:00.377Z,100823.28
2022-08-25T07:55:30.493Z,100822.31
2022-08-25T07:57:59.778Z,100814.62
2022-08-25T08:00:29.903Z,100815.72
2022-08-25T08:02:58.849Z,100814.50
2022-08-25T08:05:28.330Z,100811.16
2022-08-25T08:07:57.212Z,100809.28
2022-08-25T08:10:48.020Z,100811.59
2022-08-25T08:13:18.396Z,100810.31
2022-08-25T08:15:48.060Z,100806.50
2022-08-25T08:18:16.827Z,100812.78
2022-08-25T08:20:47.808Z,100806.66
2022-08-25T08:23:17.398Z,100814.03
2022-08-25T08:25:45.338Z,100806.19
2022-08-25T08:28:14.931Z,100804.34
2022-08-25T08:30:53.297Z,100801.38
2022-08-25T08:33:24.449Z,100805.12
2022-08-25T08:36:05.173Z,100806.59
2022-08-25T08:38:33.771Z,100798.53
2022-08-25T08:41:30.578Z,100789.44
2022-08-25T08:44:11.200Z,100783.97
2022-08-25T08:46:48.633Z,100787.53
2022-08-25T08:49:26.950Z,100772.66
2022-08-25T08:52:01.976Z,100773.94
2022-08-25T08:54:36.859Z,100776.03
2022-08-25T08:57:09.732Z,100775.09
2022-08-25T08:59:48.700Z,100783.94
2022-08-25T09:02:39.173Z,100775.28
2022-08-25T09:05:17.164Z,100776.00
2022-08-25T09:07:49.312Z,100780.38
2022-08-25T09:10:25.615Z,100784.41
2022-08-25T09:13:04.945Z,100777.94
2022-08-25T09:15:58.612Z,100777.16
2022-08-25T09:18:32.482Z,100776.34
2022-08-25T09:21:09.875Z,100777.84
2022-08-25T09:23:55.060Z,100764.97
2022-08-25T09:26:32.548Z,100763.91
2022-08-25T09:29:06.174Z,100772.72
2022-08-25T09:31:38.865Z,100775.72
2022-08-25T09:34:08.960Z,100779.91
2022-08-25T09:36:37.957Z,100773.56
2022-08-25T09:39:06.742Z,100772.25
2022-08-25T09:41:51.299Z,100771.59
2022-08-25T09:44:26.057Z,100760.41
2022-08-25T09:47:02.878Z,100762.50
2022-08-25T09:49:40.058Z,100754.84
2022-08-25T09:52:25.222Z,100750.91
2022-08-25T09:54:54.878Z,100752.91
2022-08-25T09:57:34.918Z,100751.97
2022-08-25T10:00:16.083Z,100741.47
2022-08-25T10:03:06.051Z,100739.25
2022-08-25T10:05:38.658Z,100738.87
2022-08-25T10:08:14.656Z,100729.53
2022-08-25T10:10:47.374Z,100728.47
2022-08-25T10:13:23.086Z,100733.25
2022-08-25T10:16:05.559Z,100729.97
2022-08-25T10:19:01.979Z,100717.91
2022-08-25T10:21:29.925Z,100716.94
2022-08-25T10:24:01.511Z,100716.19
2022-08-25T10:26:37.471Z,100715.66
2022-08-25T10:29:15.861Z,100716.66
2022-08-25T10:31:51.824Z,100705.94
2022-08-25T10:34:38.288Z,100712.38
2022-08-25T10:37:22.622Z,100710.41
2022-08-25T10:40:03.534Z,100677.72
2022-08-25T10:42:37.683Z,100694.00
2022-08-25T10:45:35.070Z,100691.25
2022-08-25T10:48:35.016Z,100689.31
2022-08-25T10:51:20.429Z,100680.47
2022-08-25T10:53:57.548Z,100678.53
2022-08-25T10:56:30.062Z,100676.75
2022-08-25T10:59:24.866Z,100675.91
2022-08-25T11:02:14.030Z,100673.63
2022-08-25T11:04:48.841Z,100677.13
2022-08-25T11:07:26.203Z,100672.56
2022-08-25T11:09:58.645Z,100675.44
2022-08-25T11:12:32.884Z,100665.03
2022-08-25T11:15:08.483Z,100664.69
2022-08-25T11:17:43.478Z,100665.22
2022-08-25T11:20:26.490Z,100659.81
2022-08-25T11:23:09.349Z,100644.56
2022-08-25T11:25:43.846Z,100646.16
2022-08-25T11:28:15.753Z,100640.75
2022-08-25T11:30:44.668Z,100647.88
2022-08-25T11:33:17.653Z,100631.44
2022-08-25T11:35:53.485Z,100641.72
2022-08-25T11:38:41.751Z,100633.50
2022-08-25T11:41:21.505Z,100629.28
2022-08-25T11:44:15.169Z,100629.00
2022-08-25T11:46:55.199Z,100633.69
2022-08-25T11:49:46.070Z,100616.56
2022-08-25T11:52:45.953Z,100612.53
2022-08-25T11:55:23.137Z,100609.56
2022-08-25T11:57:54.364Z,100612.53
2022-08-25T12:00:48.341Z,100609.34
2022-08-25T12:03:50.943Z,100606.56
2022-08-25T12:06:26.052Z,100593.16
2022-08-25T12:09:20.085Z,100600.22
2022-08-25T12:11:55.052Z,100600.81
2022-08-25T12:14:44.078Z,100602.72
2022-08-25T12:17:26.067Z,100600.56
2022-08-25T12:19:57.724Z,100602.56
2022-08-25T12:22:51.550Z,100601.38
2022-08-25T12:25:33.846Z,100598.03
2022-08-25T12:28:10.904Z,100594.81
2022-08-25T12:30:50.525Z,100579.87
2022-08-25T12:33:32.816Z,100580.22
2022-08-25T12:36:03.735Z,100577.19
2022-08-25T12:38:42.596Z,100575.19
2022-08-25T12:41:14.637Z,100575.22
2022-08-25T12:43:47.432Z,100574.91
2022-08-25T12:46:37.813Z,100573.13
2022-08-25T12:49:14.281Z,100562.34
2022-08-25T12:51:54.677Z,100562.87
2022-08-25T12:54:38.599Z,100565.63
2022-08-25T12:57:25.136Z,100563.78
2022-08-25T13:00:06.444Z,100567.59
2022-08-25T13:02:58.103Z,100560.25
2022-08-25T13:06:05.772Z,100562.50
2022-08-25T13:08:53.690Z,100557.78
2022-08-25T13:11:30.381Z,100556.56
2022-08-25T13:14:08.769Z,100556.72
2022-08-25T13:16:39.696Z,100554.34
2022-08-25T13:19:08.647Z,100550.28
2022-08-25T13:21:38.850Z,100548.56
2022-08-25T13:24:10.247Z,100546.13
2022-08-25T13:26:48.122Z,100531.56
2022-08-25T13:29:20.643Z,100539.25
2022-08-25T13:31:57.016Z,100528.19
2022-08-25T13:34:34.319Z,100532.00
2022-08-25T13:37:24.790Z,100525.34
2022-08-25T13:40:07.634Z,100517.81
2022-08-25T13:42:42.481Z,100516.41
2022-08-25T13:45:16.685Z,100517.72
2022-08-25T13:47:48.283Z,100510.72
2022-08-25T13:50:35.366Z,100505.16
2022-08-25T13:53:06.009Z,100497.69
2022-08-25T13:55:50.521Z,100490.41
2022-08-25T13:58:24.477Z,100494.41
2022-08-25T14:01:22.181Z,100498.66
2022-08-25T14:04:19.041Z,100493.91
2022-08-25T14:06:47.706Z,100491.72
2022-08-25T14:09:27.879Z,100491.00
2022-08-25T14:11:58.660Z,100478.53
2022-08-25T14:14:35.192Z,100478.34
2022-08-25T14:17:21.579Z,100471.44
2022-08-25T14:19:58.737Z,100474.59
2022-08-25T14:22:27.026Z,100473.28
2022-08-25T14:24:56.155Z,100475.03
2022-08-25T14:27:24.307Z,100468.06
2022-08-25T14:29:53.027Z,100460.06
2022-08-25T14:32:21.520Z,100460.09
2022-08-25T14:34:49.477Z,100459.34
2022-08-25T14:37:21.007Z,100460.78
2022-08-25T14:39:54.754Z,100454.37
2022-08-25T14:42:25.411Z,100455.81
2022-08-25T14:44:54.564Z,100455.84
2022-08-25T14:47:24.616Z,100450.94
2022-08-25T14:49:52.569Z,100450.41
2022-08-25T14:52:26.681Z,100444.06
2022-08-25T14:54:54.972Z,100445.41
2022-08-25T14:57:23.111Z,100441.81
2022-08-25T14:59:52.331Z,100437.59
2022-08-25T15:02:22.793Z,100435.41
2022-08-25T15:05:02.131Z,100437.06
2022-08-25T15:07:50.790Z,100433.44
2022-08-25T15:10:21.773Z,100425.69
2022-08-25T15:12:53.851Z,100422.31
2022-08-25T15:15:26.369Z,100409.91
2022-08-25T15:17:55.204Z,100412.91
2022-08-25T15:20:26.597Z,100412.34
2022-08-25T15:22:55.909Z,100405.72
2022-08-25T15:25:24.515Z,100404.47
2022-08-25T15:27:52.745Z,100391.97
2022-08-25T15:30:20.923Z,100398.00
2022-08-25T15:32:59.368Z,100391.56
2022-08-25T15:35:29.206Z,100391.06
2022-08-25T15:37:58.573Z,100390.44
2022-08-25T15:40:27.359Z,100394.03
2022-08-25T15:42:55.423Z,100398.44
2022-08-25T15:45:24.039Z,100391.28
2022-08-25T15:47:53.917Z,100390.75
2022-08-25T15:50:26.064Z,100389.94
2022-08-25T15:52:54.601Z,100389.63
2022-08-25T15:55:23.945Z,100388.22
2022-08-25T15:57:52.651Z,100383.75
2022-08-25T16:00:22.713Z,100384.00
2022-08-25T16:02:52.457Z,100379.22
2022-08-25T16:05:25.640Z,100378.03
2022-08-25T16:07:54.266Z,100378.31
2022-08-25T16:10:22.394Z,100374.41
2022-08-25T16:12:51.602Z,100376.06
2022-08-25T16:15:23.919Z,100381.88
2022-08-25T16:17:52.172Z,100374.16
2022-08-25T16:20:20.862Z,100375.59
2022-08-25T16:22:51.487Z,100377.22
2022-08-25T16:25:19.763Z,100373.56
2022-08-25T16:27:48.538Z,100365.56
2022-08-25T16:30:18.460Z,100369.94
2022-08-25T16:32:46.655Z,100374.94
2022-08-25T16:35:14.897Z,100371.66
2022-08-25T16:37:42.917Z,100378.56
2022-08-25T16:40:14.783Z,100380.28
2022-08-25T16:42:43.489Z,100370.56
2022-08-25T16:45:12.626Z,100376.56
2022-08-25T16:47:42.929Z,100371.81
2022-08-25T16:50:11.977Z,100366.31
2022-08-25T16:52:58.232Z,100363.63
2022-08-25T16:55:39.023Z,100362.59
2022-08-25T16:58:12.688Z,100363.47
2022-08-25T17:00:44.645Z,100364.91
2022-08-25T17:03:14.223Z,100357.09
2022-08-25T17:05:44.544Z,100365.47
2022-08-25T17:08:31.150Z,100365.22
2022-08-25T17:11:08.134Z,100351.63
2022-08-25T17:13:37.342Z,100358.09
2022-08-25T17:16:05.940Z,100356.22
2022-08-25T17:18:35.331Z,100360.34
2022-08-25T17:21:08.117Z,100358.44
2022-08-25T17:23:37.928Z,100359.31
2022-08-25T17:26:13.006Z,100362.03
2022-08-25T17:28:43.122Z,100363.63
2022-08-25T17:31:13.970Z,100358.34
2022-08-25T17:33:43.848Z,100370.50
2022-08-25T17:36:16.665Z,100373.38
2022-08-25T17:38:45.165Z,100375.66
2022-08-25T17:41:15.005Z,100367.62
2022-08-25T17:43:44.374Z,100366.41
2022-08-25T17:46:13.579Z,100365.91
2022-08-25T17:48:46.187Z,100373.03
2022-08-25T17:51:15.942Z,100366.81
2022-08-25T17:53:44.748Z,100374.06
2022-08-25T17:56:18.570Z,100370.81
2022-08-25T17:58:47.976Z,100366.37
2022-08-25T18:01:17.912Z,100382.06
2022-08-25T18:03:47.586Z,100386.88
2022-08-25T18:06:16.599Z,100376.50
2022-08-25T18:08:51.721Z,100382.16
2022-08-25T18:11:23.624Z,100385.38
2022-08-25T18:13:53.612Z,100378.06
2022-08-25T18:16:22.427Z,100376.81
2022-08-25T18:18:52.880Z,100383.66
2022-08-25T18:21:22.440Z,100383.09
2022-08-25T18:23:51.016Z,100385.66
2022-08-25T18:26:24.785Z,100386.78
2022-08-25T18:28:53.832Z,100389.44
2022-08-25T18:31:21.977Z,100389.06
2022-08-25T18:33:51.256Z,100391.44
2022-08-25T18:36:21.351Z,100393.16
2022-08-25T18:39:07.516Z,100393.50
2022-08-25T18:41:39.296Z,100397.38
2022-08-25T18:44:08.141Z,100394.69
2022-08-25T18:46:39.961Z,100392.41
2022-08-25T18:49:09.902Z,100393.69
2022-08-25T18:51:38.595Z,100390.31
2022-08-25T18:54:07.182Z,100404.84
2022-08-25T18:56:51.082Z,100406.13
2022-08-25T18:59:20.284Z,100402.59
2022-08-25T19:01:53.931Z,100405.16
2022-08-25T19:04:28.565Z,100409.16
2022-08-25T19:07:00.951Z,100406.84
2022-08-25T19:09:29.699Z,100414.44
2022-08-25T19:11:59.139Z,100415.72
2022-08-25T19:14:28.204Z,100417.84
2022-08-25T19:16:57.891Z,100418.25
2022-08-25T19:19:27.518Z,100420.59
2022-08-25T19:21:55.804Z,100419.13
2022-08-25T19:24:23.731Z,100419.59
2022-08-25T19:26:54.722Z,100415.38
2022-08-25T19:29:23.948Z,100413.28
2022-08-25T19:31:53.265Z,100419.59
2022-08-25T19:34:28.332Z,100424.66
2022-08-25T19:37:02.700Z,100421.72
2022-08-25T19:39:33.204Z,100417.13
2022-08-25T19:42:03.182Z,100417.75
2022-08-25T19:44:31.520Z,100420.31
2022-08-25T19:46:59.626Z,100413.78
2022-08-25T19:49:31.691Z,100412.56
2022-08-25T19:52:04.668Z,100410.44
2022-08-25T19:54:35.486Z,100418.22
2022-08-25T19:57:05.108Z,100414.03
2022-08-25T19:59:43.135Z,100416.34
2022-08-25T20:02:15.527Z,100410.69
2022-08-25T20:04:45.704Z,100414.84
2022-08-25T20:07:21.194Z,100412.56
2022-08-25T20:09:49.742Z,100412.38
2022-08-25T20:12:20.244Z,100413.19
2022-08-25T20:14:49.287Z,100414.69
2022-08-25T20:17:23.766Z,100415.50
2022-08-25T20:19:55.825Z,100405.44
2022-08-25T20:22:28.035Z,100406.28
2022-08-25T20:24:57.804Z,100411.50
2022-08-25T20:27:32.009Z,100414.25
2022-08-25T20:30:03.021Z,100414.66
2022-08-25T20:32:33.545Z,100418.84
2022-08-25T20:35:01.876Z,100416.72
2022-08-25T20:37:31.218Z,100423.63
2022-08-25T20:40:02.243Z,100421.34
2022-08-25T20:42:30.462Z,100431.78
2022-08-25T20:44:59.999Z,100426.56
2022-08-25T20:47:29.886Z,100426.97
2022-08-25T20:50:02.154Z,100425.50
2022-08-25T20:52:36.360Z,100437.88
2022-08-25T20:55:09.063Z,100432.63
2022-08-25T20:57:37.969Z,100436.19
2022-08-25T21:00:07.924Z,100433.22
2022-08-25T21:02:36.008Z,100435.75
2022-08-25T21:05:04.981Z,100434.88
2022-08-25T21:07:32.959Z,100437.56
2022-08-25T21:10:07.333Z,100435.44
2022-08-25T21:12:39.074Z,100434.53
2022-08-25T21:15:08.506Z,100437.03
2022-08-25T21:17:36.585Z,100430.53
2022-08-25T21:20:05.412Z,100427.75
2022-08-25T21:22:34.488Z,100425.66
2022-08-25T21:25:02.876Z,100420.78
2022-08-25T21:27:32.843Z,100420.37
2022-08-25T21:30:00.915Z,100428.75
2022-08-25T21:32:28.852Z,100420.09
2022-08-25T21:34:57.861Z,100419.69
2022-08-25T21:37:27.142Z,100416.75
2022-08-25T21:39:55.296Z,100421.28
2022-08-25T21:42:25.087Z,100412.84
2022-08-25T21:44:54.646Z,100415.97
2022-08-25T21:47:23.151Z,100419.47
2022-08-25T21:49:51.833Z,100415.69
2022-08-25T21:52:20.892Z,100410.19
2022-08-25T21:54:48.982Z,100408.91
2022-08-25T21:57:18.042Z,100413.72
2022-08-25T21:59:47.168Z,100413.47
2022-08-25T22:02:21.900Z,100411.91
2022-08-25T22:04:53.415Z,100408.50
2022-08-25T22:07:22.586Z,100410.34
2022-08-25T22:09:54.025Z,100402.72
2022-08-25T22:12:22.316Z,100405.84
2022-08-25T22:14:53.604Z,100401.16
2022-08-25T22:17:24.242Z,100406.16
2022-08-25T22:19:53.908Z,100403.19
2022-08-25T22:22:22.820Z,100407.53
2022-08-25T22:24:53.006Z,100408.94
2022-08-25T22:27:23.341Z,100410.37
2022-08-25T22:29:52.743Z,100407.41
2022-08-25T22:32:21.171Z,100417.59
2022-08-25T22:34:51.008Z,100404.03
2022-08-25T22:37:19.347Z,100399.81
2022-08-25T22:39:47.468Z,100411.28
2022-08-25T22:42:16.632Z,100409.97
2022-08-25T22:44:45.355Z,100403.44
2022-08-25T22:47:13.722Z,100405.00
2022-08-25T22:49:41.794Z,100406.78
2022-08-25T22:52:13.105Z,100403.19
2022-08-25T22:54:42.551Z,100399.53
2022-08-25T22:57:11.785Z,100405.56
2022-08-25T22:59:39.938Z,100396.09
2022-08-25T23:02:08.739Z,100392.28
2022-08-25T23:04:41.541Z,100394.06
2022-08-25T23:07:12.969Z,100391.25
2022-08-25T23:09:41.547Z,100388.28
2022-08-25T23:12:12.128Z,100384.03
2022-08-25T23:14:42.034Z,100391.34
2022-08-25T23:17:12.847Z,100385.06
2022-08-25T23:19:41.632Z,100385.47
2022-08-25T23:22:13.491Z,100381.41
2022-08-25T23:24:47.835Z,100379.06
2022-08-25T23:27:18.967Z,100378.41
2022-08-25T23:29:50.216Z,100374.41
2022-08-25T23:32:19.365Z,100366.25
2022-08-25T23:34:47.905Z,100359.69
2022-08-25T23:37:18.704Z,100361.75
2022-08-25T23:39:50.030Z,100353.16
2022-08-25T23:42:20.109Z,100348.09
2022-08-25T23:44:49.128Z,100347.91
2022-08-25T23:47:18.457Z,100350.44
2022-08-25T23:49:48.092Z,100343.16
2022-08-25T23:52:17.484Z,100351.28
2022-08-25T23:54:46.274Z,100344.19
2022-08-25T23:57:15.740Z,100339.59
2022-08-25T23:59:43.726Z,100346.03
